sensor_id;sensor_type;location;lat;lon;timestamp;temperature;humidity
81210;DHT22;70685;52.496;13.420;2023-08-30T00:00:42;16.20;78.90
81210;DHT22;70685;52.496;13.420;2023-08-30T00:03:07;16.30;78.10
81210;DHT22;70685;52.496;13.420;2023-08-30T00:05:33;16.40;78.00
81210;DHT22;70685;52.496;13.420;2023-08-30T00:07:58;16.40;77.60
81210;DHT22;70685;52.496;13.420;2023-08-30T00:10:26;16.40;78.20
81210;DHT22;70685;52.496;13.420;2023-08-30T00:12:59;16.30;78.10
81210;DHT22;70685;52.496;13.420;2023-08-30T00:15:27;16.40;77.80
81210;DHT22;70685;52.496;13.420;2023-08-30T00:17:55;16.40;77.70
81210;DHT22;70685;52.496;13.420;2023-08-30T00:20:21;16.30;77.90
81210;DHT22;70685;52.496;13.420;2023-08-30T00:22:49;16.30;78.60
81210;DHT22;70685;52.496;13.420;2023-08-30T00:25:15;16.30;78.00
81210;DHT22;70685;52.496;13.420;2023-08-30T00:27:41;16.20;78.60
81210;DHT22;70685;52.496;13.420;2023-08-30T00:30:11;16.20;78.50
81210;DHT22;70685;52.496;13.420;2023-08-30T00:32:37;16.20;78.20
81210;DHT22;70685;52.496;13.420;2023-08-30T00:35:03;16.20;78.70
81210;DHT22;70685;52.496;13.420;2023-08-30T00:37:28;16.20;77.70
81210;DHT22;70685;52.496;13.420;2023-08-30T00:39:54;16.20;77.80
81210;DHT22;70685;52.496;13.420;2023-08-30T00:42:19;16.20;77.90
81210;DHT22;70685;52.496;13.420;2023-08-30T00:44:49;16.30;77.40
81210;DHT22;70685;52.496;13.420;2023-08-30T00:47:15;16.30;78.50
81210;DHT22;70685;52.496;13.420;2023-08-30T00:49:40;16.10;78.30
81210;DHT22;70685;52.496;13.420;2023-08-30T00:52:07;16.10;78.10
81210;DHT22;70685;52.496;13.420;2023-08-30T00:54:36;16.10;78.40
81210;DHT22;70685;52.496;13.420;2023-08-30T00:57:01;16.10;78.70
81210;DHT22;70685;52.496;13.420;2023-08-30T00:59:31;16.00;78.70
81210;DHT22;70685;52.496;13.420;2023-08-30T01:01:57;16.00;78.50
81210;DHT22;70685;52.496;13.420;2023-08-30T01:04:26;16.00;78.20
81210;DHT22;70685;52.496;13.420;2023-08-30T01:06:52;16.10;78.50
81210;DHT22;70685;52.496;13.420;2023-08-30T01:09:18;16.00;78.50
81210;DHT22;70685;52.496;13.420;2023-08-30T01:11:56;15.90;78.90
81210;DHT22;70685;52.496;13.420;2023-08-30T01:14:31;15.90;79.30
81210;DHT22;70685;52.496;13.420;2023-08-30T01:17:01;15.90;79.30
81210;DHT22;70685;52.496;13.420;2023-08-30T01:19:36;16.00;79.20
81210;DHT22;70685;52.496;13.420;2023-08-30T01:27:16;16.00;78.90
81210;DHT22;70685;52.496;13.420;2023-08-30T01:29:43;16.00;78.80
81210;DHT22;70685;52.496;13.420;2023-08-30T01:32:10;16.00;78.80
81210;DHT22;70685;52.496;13.420;2023-08-30T01:34:36;16.00;78.00
81210;DHT22;70685;52.496;13.420;2023-08-30T01:37:03;16.10;78.50
81210;DHT22;70685;52.496;13.420;2023-08-30T01:39:30;16.10;78.10
81210;DHT22;70685;52.496;13.420;2023-08-30T01:41:55;16.00;77.80
81210;DHT22;70685;52.496;13.420;2023-08-30T01:44:27;16.10;77.40
81210;DHT22;70685;52.496;13.420;2023-08-30T01:46:53;16.10;77.30
81210;DHT22;70685;52.496;13.420;2023-08-30T01:49:19;16.00;77.40
81210;DHT22;70685;52.496;13.420;2023-08-30T01:51:45;16.10;77.20
81210;DHT22;70685;52.496;13.420;2023-08-30T01:54:14;16.20;76.80
81210;DHT22;70685;52.496;13.420;2023-08-30T01:56:42;16.10;77.10
81210;DHT22;70685;52.496;13.420;2023-08-30T01:59:10;16.10;77.00
81210;DHT22;70685;52.496;13.420;2023-08-30T02:01:35;16.10;76.80
81210;DHT22;70685;52.496;13.420;2023-08-30T02:04:03;16.00;77.00
81210;DHT22;70685;52.496;13.420;2023-08-30T02:07:21;16.00;78.00
81210;DHT22;70685;52.496;13.420;2023-08-30T02:09:19;16.00;77.60
81210;DHT22;70685;52.496;13.420;2023-08-30T02:11:46;15.90;77.80
81210;DHT22;70685;52.496;13.420;2023-08-30T02:14:14;15.90;77.80
81210;DHT22;70685;52.496;13.420;2023-08-30T02:16:47;15.80;78.00
81210;DHT22;70685;52.496;13.420;2023-08-30T02:19:13;15.80;77.80
81210;DHT22;70685;52.496;13.420;2023-08-30T02:24:32;15.80;78.10
81210;DHT22;70685;52.496;13.420;2023-08-30T02:26:57;15.70;78.20
81210;DHT22;70685;52.496;13.420;2023-08-30T02:29:23;15.70;78.20
81210;DHT22;70685;52.496;13.420;2023-08-30T02:31:49;15.80;78.10
81210;DHT22;70685;52.496;13.420;2023-08-30T02:34:15;15.80;77.50
81210;DHT22;70685;52.496;13.420;2023-08-30T02:36:40;15.70;77.90
81210;DHT22;70685;52.496;13.420;2023-08-30T02:39:05;15.70;78.10
81210;DHT22;70685;52.496;13.420;2023-08-30T02:41:33;15.80;77.60
81210;DHT22;70685;52.496;13.420;2023-08-30T02:43:59;15.70;77.50
81210;DHT22;70685;52.496;13.420;2023-08-30T02:46:25;15.70;77.40
81210;DHT22;70685;52.496;13.420;2023-08-30T02:48:50;15.70;77.60
81210;DHT22;70685;52.496;13.420;2023-08-30T02:51:16;15.70;77.50
81210;DHT22;70685;52.496;13.420;2023-08-30T02:53:42;15.60;77.90
81210;DHT22;70685;52.496;13.420;2023-08-30T02:56:10;15.70;77.60
81210;DHT22;70685;52.496;13.420;2023-08-30T02:58:38;15.60;77.60
81210;DHT22;70685;52.496;13.420;2023-08-30T03:01:06;15.50;77.80
81210;DHT22;70685;52.496;13.420;2023-08-30T03:03:32;15.50;78.20
81210;DHT22;70685;52.496;13.420;2023-08-30T03:05:57;15.50;78.00
81210;DHT22;70685;52.496;13.420;2023-08-30T03:08:23;15.40;78.30
81210;DHT22;70685;52.496;13.420;2023-08-30T03:10:48;15.40;78.30
81210;DHT22;70685;52.496;13.420;2023-08-30T03:13:14;15.40;78.20
81210;DHT22;70685;52.496;13.420;2023-08-30T03:15:39;15.40;78.30
81210;DHT22;70685;52.496;13.420;2023-08-30T03:18:05;15.40;78.60
81210;DHT22;70685;52.496;13.420;2023-08-30T03:20:33;15.30;78.70
81210;DHT22;70685;52.496;13.420;2023-08-30T03:23:15;15.30;78.70
81210;DHT22;70685;52.496;13.420;2023-08-30T03:25:40;15.30;78.90
81210;DHT22;70685;52.496;13.420;2023-08-30T03:28:06;15.30;78.80
81210;DHT22;70685;52.496;13.420;2023-08-30T03:30:34;15.20;78.90
81210;DHT22;70685;52.496;13.420;2023-08-30T03:33:01;15.10;79.10
81210;DHT22;70685;52.496;13.420;2023-08-30T03:35:33;15.20;79.20
81210;DHT22;70685;52.496;13.420;2023-08-30T03:37:58;15.20;79.50
81210;DHT22;70685;52.496;13.420;2023-08-30T03:40:26;15.20;79.30
81210;DHT22;70685;52.496;13.420;2023-08-30T03:42:52;15.20;79.10
81210;DHT22;70685;52.496;13.420;2023-08-30T03:45:18;15.20;79.20
81210;DHT22;70685;52.496;13.420;2023-08-30T03:47:46;15.20;79.20
81210;DHT22;70685;52.496;13.420;2023-08-30T03:50:11;15.20;79.70
81210;DHT22;70685;52.496;13.420;2023-08-30T03:52:37;15.20;79.50
81210;DHT22;70685;52.496;13.420;2023-08-30T03:55:02;15.30;79.00
81210;DHT22;70685;52.496;13.420;2023-08-30T03:57:28;15.40;78.60
81210;DHT22;70685;52.496;13.420;2023-08-30T03:59:54;15.40;78.30
81210;DHT22;70685;52.496;13.420;2023-08-30T04:02:19;15.40;78.80
81210;DHT22;70685;52.496;13.420;2023-08-30T04:04:48;15.40;79.50
81210;DHT22;70685;52.496;13.420;2023-08-30T04:07:14;15.30;78.90
81210;DHT22;70685;52.496;13.420;2023-08-30T04:09:39;15.30;79.00
81210;DHT22;70685;52.496;13.420;2023-08-30T04:12:05;15.30;79.00
81210;DHT22;70685;52.496;13.420;2023-08-30T04:14:31;15.20;79.20
81210;DHT22;70685;52.496;13.420;2023-08-30T04:16:56;15.10;79.30
81210;DHT22;70685;52.496;13.420;2023-08-30T04:19:25;15.10;79.50
81210;DHT22;70685;52.496;13.420;2023-08-30T04:21:53;15.10;79.80
81210;DHT22;70685;52.496;13.420;2023-08-30T04:24:19;15.10;79.90
81210;DHT22;70685;52.496;13.420;2023-08-30T04:26:47;15.10;79.80
81210;DHT22;70685;52.496;13.420;2023-08-30T04:29:16;15.20;79.80
81210;DHT22;70685;52.496;13.420;2023-08-30T04:31:44;15.20;79.60
81210;DHT22;70685;52.496;13.420;2023-08-30T04:34:10;15.20;79.70
81210;DHT22;70685;52.496;13.420;2023-08-30T04:36:38;15.20;79.40
81210;DHT22;70685;52.496;13.420;2023-08-30T04:39:08;15.20;79.10
81210;DHT22;70685;52.496;13.420;2023-08-30T04:41:34;15.20;79.20
81210;DHT22;70685;52.496;13.420;2023-08-30T04:44:00;15.30;79.10
81210;DHT22;70685;52.496;13.420;2023-08-30T04:46:35;15.40;78.70
81210;DHT22;70685;52.496;13.420;2023-08-30T04:49:03;15.50;77.80
81210;DHT22;70685;52.496;13.420;2023-08-30T04:51:33;15.60;78.00
81210;DHT22;70685;52.496;13.420;2023-08-30T04:53:58;15.70;77.60
81210;DHT22;70685;52.496;13.420;2023-08-30T04:56:26;15.70;77.50
81210;DHT22;70685;52.496;13.420;2023-08-30T04:58:58;15.70;77.10
81210;DHT22;70685;52.496;13.420;2023-08-30T05:01:31;15.90;76.60
81210;DHT22;70685;52.496;13.420;2023-08-30T05:10:12;16.00;76.60
81210;DHT22;70685;52.496;13.420;2023-08-30T05:27:41;16.90;73.00
81210;DHT22;70685;52.496;13.420;2023-08-30T05:30:07;17.00;72.60
81210;DHT22;70685;52.496;13.420;2023-08-30T05:32:38;17.10;72.70
81210;DHT22;70685;52.496;13.420;2023-08-30T05:38:01;17.30;72.50
81210;DHT22;70685;52.496;13.420;2023-08-30T05:40:26;17.30;71.90
81210;DHT22;70685;52.496;13.420;2023-08-30T05:43:04;17.40;71.30
81210;DHT22;70685;52.496;13.420;2023-08-30T05:48:16;17.50;71.30
81210;DHT22;70685;52.496;13.420;2023-08-30T05:50:43;17.50;71.20
81210;DHT22;70685;52.496;13.420;2023-08-30T05:53:10;17.60;71.00
81210;DHT22;70685;52.496;13.420;2023-08-30T05:55:38;17.60;70.70
81210;DHT22;70685;52.496;13.420;2023-08-30T05:58:04;17.70;70.40
81210;DHT22;70685;52.496;13.420;2023-08-30T06:03:40;17.70;69.70
81210;DHT22;70685;52.496;13.420;2023-08-30T06:06:08;17.80;70.10
81210;DHT22;70685;52.496;13.420;2023-08-30T06:08:37;18.00;70.10
81210;DHT22;70685;52.496;13.420;2023-08-30T06:11:02;18.10;69.70
81210;DHT22;70685;52.496;13.420;2023-08-30T06:13:34;18.20;69.10
81210;DHT22;70685;52.496;13.420;2023-08-30T06:16:08;18.20;69.20
81210;DHT22;70685;52.496;13.420;2023-08-30T06:18:33;18.40;68.00
81210;DHT22;70685;52.496;13.420;2023-08-30T06:21:08;18.40;67.80
81210;DHT22;70685;52.496;13.420;2023-08-30T06:23:37;18.50;67.60
81210;DHT22;70685;52.496;13.420;2023-08-30T06:26:05;18.60;67.20
81210;DHT22;70685;52.496;13.420;2023-08-30T06:31:22;18.70;66.80
81210;DHT22;70685;52.496;13.420;2023-08-30T06:36:39;18.90;66.50
81210;DHT22;70685;52.496;13.420;2023-08-30T06:39:23;19.10;66.00
81210;DHT22;70685;52.496;13.420;2023-08-30T06:42:03;19.20;65.30
81210;DHT22;70685;52.496;13.420;2023-08-30T06:44:29;19.30;64.60
81210;DHT22;70685;52.496;13.420;2023-08-30T06:46:58;19.50;64.20
81210;DHT22;70685;52.496;13.420;2023-08-30T06:49:25;19.60;63.80
81210;DHT22;70685;52.496;13.420;2023-08-30T06:51:50;19.80;63.90
81210;DHT22;70685;52.496;13.420;2023-08-30T06:54:16;19.90;63.00
81210;DHT22;70685;52.496;13.420;2023-08-30T06:56:45;19.90;62.50
81210;DHT22;70685;52.496;13.420;2023-08-30T06:59:25;20.00;62.80
81210;DHT22;70685;52.496;13.420;2023-08-30T07:01:52;20.10;62.00
81210;DHT22;70685;52.496;13.420;2023-08-30T07:04:20;20.10;62.10
81210;DHT22;70685;52.496;13.420;2023-08-30T07:06:48;20.30;61.70
81210;DHT22;70685;52.496;13.420;2023-08-30T07:09:14;20.50;62.10
81210;DHT22;70685;52.496;13.420;2023-08-30T07:11:41;20.70;60.10
81210;DHT22;70685;52.496;13.420;2023-08-30T07:14:09;20.80;60.70
81210;DHT22;70685;52.496;13.420;2023-08-30T07:16:38;21.00;59.40
81210;DHT22;70685;52.496;13.420;2023-08-30T07:19:18;21.10;59.50
81210;DHT22;70685;52.496;13.420;2023-08-30T07:21:46;21.20;58.60
81210;DHT22;70685;52.496;13.420;2023-08-30T07:24:12;21.20;57.60
81210;DHT22;70685;52.496;13.420;2023-08-30T07:26:40;21.10;57.70
81210;DHT22;70685;52.496;13.420;2023-08-30T07:29:08;21.30;57.50
81210;DHT22;70685;52.496;13.420;2023-08-30T07:31:36;21.30;57.90
81210;DHT22;70685;52.496;13.420;2023-08-30T07:34:06;21.40;56.70
81210;DHT22;70685;52.496;13.420;2023-08-30T07:36:33;21.40;57.10
81210;DHT22;70685;52.496;13.420;2023-08-30T07:38:59;21.30;57.10
81210;DHT22;70685;52.496;13.420;2023-08-30T07:41:28;21.30;57.20
81210;DHT22;70685;52.496;13.420;2023-08-30T07:43:56;21.20;57.40
81210;DHT22;70685;52.496;13.420;2023-08-30T07:46:24;21.20;58.10
81210;DHT22;70685;52.496;13.420;2023-08-30T07:48:51;21.20;58.30
81210;DHT22;70685;52.496;13.420;2023-08-30T07:51:16;21.30;57.40
81210;DHT22;70685;52.496;13.420;2023-08-30T07:53:42;21.30;57.90
81210;DHT22;70685;52.496;13.420;2023-08-30T07:56:09;21.40;57.40
81210;DHT22;70685;52.496;13.420;2023-08-30T07:58:35;21.50;57.90
81210;DHT22;70685;52.496;13.420;2023-08-30T08:01:03;21.50;56.90
81210;DHT22;70685;52.496;13.420;2023-08-30T08:03:28;21.30;57.80
81210;DHT22;70685;52.496;13.420;2023-08-30T08:05:54;21.30;57.40
81210;DHT22;70685;52.496;13.420;2023-08-30T08:08:19;21.40;56.70
81210;DHT22;70685;52.496;13.420;2023-08-30T08:10:45;21.50;56.00
81210;DHT22;70685;52.496;13.420;2023-08-30T08:13:12;21.50;56.40
81210;DHT22;70685;52.496;13.420;2023-08-30T08:15:38;21.60;56.30
81210;DHT22;70685;52.496;13.420;2023-08-30T08:18:04;21.60;56.30
81210;DHT22;70685;52.496;13.420;2023-08-30T08:20:31;21.60;55.90
81210;DHT22;70685;52.496;13.420;2023-08-30T08:23:00;21.60;54.70
81210;DHT22;70685;52.496;13.420;2023-08-30T08:25:25;21.50;55.20
81210;DHT22;70685;52.496;13.420;2023-08-30T08:27:51;21.50;56.00
81210;DHT22;70685;52.496;13.420;2023-08-30T08:30:17;21.60;55.80
81210;DHT22;70685;52.496;13.420;2023-08-30T08:32:45;21.60;55.10
81210;DHT22;70685;52.496;13.420;2023-08-30T08:35:13;21.80;55.70
81210;DHT22;70685;52.496;13.420;2023-08-30T08:37:41;22.00;54.40
81210;DHT22;70685;52.496;13.420;2023-08-30T08:40:07;22.20;54.10
81210;DHT22;70685;52.496;13.420;2023-08-30T08:42:36;22.30;52.90
81210;DHT22;70685;52.496;13.420;2023-08-30T08:45:04;22.60;52.30
81210;DHT22;70685;52.496;13.420;2023-08-30T08:47:30;22.90;52.20
81210;DHT22;70685;52.496;13.420;2023-08-30T08:50:01;23.40;51.40
81210;DHT22;70685;52.496;13.420;2023-08-30T08:52:29;23.70;48.80
81210;DHT22;70685;52.496;13.420;2023-08-30T08:54:54;23.90;47.60
81210;DHT22;70685;52.496;13.420;2023-08-30T08:57:20;24.10;47.00
81210;DHT22;70685;52.496;13.420;2023-08-30T08:59:48;24.40;46.20
81210;DHT22;70685;52.496;13.420;2023-08-30T09:02:15;24.70;45.90
81210;DHT22;70685;52.496;13.420;2023-08-30T09:04:41;25.10;45.50
81210;DHT22;70685;52.496;13.420;2023-08-30T09:07:09;25.70;45.20
81210;DHT22;70685;52.496;13.420;2023-08-30T09:09:34;26.10;43.40
81210;DHT22;70685;52.496;13.420;2023-08-30T09:12:00;26.40;42.20
81210;DHT22;70685;52.496;13.420;2023-08-30T09:14:25;26.50;43.50
81210;DHT22;70685;52.496;13.420;2023-08-30T09:16:55;26.40;43.00
81210;DHT22;70685;52.496;13.420;2023-08-30T09:19:21;26.50;43.10
81210;DHT22;70685;52.496;13.420;2023-08-30T09:21:53;26.80;42.50
81210;DHT22;70685;52.496;13.420;2023-08-30T09:24:19;27.30;42.30
81210;DHT22;70685;52.496;13.420;2023-08-30T09:26:49;27.80;40.40
81210;DHT22;70685;52.496;13.420;2023-08-30T09:29:16;28.70;39.70
81210;DHT22;70685;52.496;13.420;2023-08-30T09:31:41;29.90;37.20
81210;DHT22;70685;52.496;13.420;2023-08-30T09:34:07;30.40;35.90
81210;DHT22;70685;52.496;13.420;2023-08-30T09:36:33;30.80;35.50
81210;DHT22;70685;52.496;13.420;2023-08-30T09:38:59;30.90;34.70
81210;DHT22;70685;52.496;13.420;2023-08-30T09:41:24;31.20;34.30
81210;DHT22;70685;52.496;13.420;2023-08-30T09:43:50;31.30;33.70
81210;DHT22;70685;52.496;13.420;2023-08-30T09:46:16;30.80;33.80
81210;DHT22;70685;52.496;13.420;2023-08-30T09:48:41;30.10;34.70
81210;DHT22;70685;52.496;13.420;2023-08-30T09:51:07;29.70;35.90
81210;DHT22;70685;52.496;13.420;2023-08-30T09:53:33;30.40;35.40
81210;DHT22;70685;52.496;13.420;2023-08-30T09:56:03;31.00;33.70
81210;DHT22;70685;52.496;13.420;2023-08-30T09:58:28;32.20;32.20
81210;DHT22;70685;52.496;13.420;2023-08-30T10:00:55;33.00;30.80
81210;DHT22;70685;52.496;13.420;2023-08-30T10:03:25;32.70;30.20
81210;DHT22;70685;52.496;13.420;2023-08-30T10:05:51;32.50;30.50
81210;DHT22;70685;52.496;13.420;2023-08-30T10:08:21;31.70;31.30
81210;DHT22;70685;52.496;13.420;2023-08-30T10:10:54;30.90;33.10
81210;DHT22;70685;52.496;13.420;2023-08-30T10:13:23;31.00;32.60
81210;DHT22;70685;52.496;13.420;2023-08-30T10:15:56;31.40;32.60
81210;DHT22;70685;52.496;13.420;2023-08-30T10:18:23;31.40;32.50
81210;DHT22;70685;52.496;13.420;2023-08-30T10:20:53;31.50;31.90
81210;DHT22;70685;52.496;13.420;2023-08-30T10:23:19;31.40;31.90
81210;DHT22;70685;52.496;13.420;2023-08-30T10:25:46;31.00;32.10
81210;DHT22;70685;52.496;13.420;2023-08-30T10:28:11;31.70;32.60
81210;DHT22;70685;52.496;13.420;2023-08-30T10:30:41;32.40;30.40
81210;DHT22;70685;52.496;13.420;2023-08-30T10:33:13;33.20;29.80
81210;DHT22;70685;52.496;13.420;2023-08-30T10:35:49;33.50;29.00
81210;DHT22;70685;52.496;13.420;2023-08-30T10:38:26;32.80;29.60
81210;DHT22;70685;52.496;13.420;2023-08-30T10:40:52;32.50;30.00
81210;DHT22;70685;52.496;13.420;2023-08-30T10:43:27;32.20;30.50
81210;DHT22;70685;52.496;13.420;2023-08-30T10:46:03;31.70;31.20
81210;DHT22;70685;52.496;13.420;2023-08-30T10:48:38;31.70;31.90
81210;DHT22;70685;52.496;13.420;2023-08-30T10:51:21;31.60;31.00
81210;DHT22;70685;52.496;13.420;2023-08-30T10:53:55;31.90;30.90
81210;DHT22;70685;52.496;13.420;2023-08-30T10:56:26;32.20;30.70
81210;DHT22;70685;52.496;13.420;2023-08-30T10:58:52;32.10;30.70
81210;DHT22;70685;52.496;13.420;2023-08-30T11:01:17;32.00;30.90
81210;DHT22;70685;52.496;13.420;2023-08-30T11:03:44;31.80;31.20
81210;DHT22;70685;52.496;13.420;2023-08-30T11:06:13;31.90;32.00
81210;DHT22;70685;52.496;13.420;2023-08-30T11:08:38;32.10;30.50
81210;DHT22;70685;52.496;13.420;2023-08-30T11:11:05;31.70;30.40
81210;DHT22;70685;52.496;13.420;2023-08-30T11:13:31;31.00;31.60
81210;DHT22;70685;52.496;13.420;2023-08-30T11:16:02;30.40;32.40
81210;DHT22;70685;52.496;13.420;2023-08-30T11:18:29;30.10;33.10
81210;DHT22;70685;52.496;13.420;2023-08-30T11:20:59;30.00;33.20
81210;DHT22;70685;52.496;13.420;2023-08-30T11:23:27;30.10;33.60
81210;DHT22;70685;52.496;13.420;2023-08-30T11:25:53;30.00;32.40
81210;DHT22;70685;52.496;13.420;2023-08-30T11:28:25;30.40;32.50
81210;DHT22;70685;52.496;13.420;2023-08-30T11:30:53;30.60;31.60
81210;DHT22;70685;52.496;13.420;2023-08-30T11:33:22;30.50;31.40
81210;DHT22;70685;52.496;13.420;2023-08-30T11:35:48;30.30;31.50
81210;DHT22;70685;52.496;13.420;2023-08-30T11:38:14;29.90;31.00
81210;DHT22;70685;52.496;13.420;2023-08-30T11:40:40;29.70;31.50
81210;DHT22;70685;52.496;13.420;2023-08-30T11:43:06;29.80;31.20
81210;DHT22;70685;52.496;13.420;2023-08-30T11:45:33;29.90;31.30
81210;DHT22;70685;52.496;13.420;2023-08-30T11:48:01;30.00;32.10
81210;DHT22;70685;52.496;13.420;2023-08-30T11:50:27;30.00;32.60
81210;DHT22;70685;52.496;13.420;2023-08-30T11:52:58;29.70;32.10
81210;DHT22;70685;52.496;13.420;2023-08-30T11:55:26;29.40;31.30
81210;DHT22;70685;52.496;13.420;2023-08-30T11:57:54;28.80;32.50
81210;DHT22;70685;52.496;13.420;2023-08-30T12:00:22;28.40;33.10
81210;DHT22;70685;52.496;13.420;2023-08-30T12:02:48;28.00;34.40
81210;DHT22;70685;52.496;13.420;2023-08-30T12:05:13;27.60;35.20
81210;DHT22;70685;52.496;13.420;2023-08-30T12:07:39;27.30;35.80
81210;DHT22;70685;52.496;13.420;2023-08-30T12:10:07;27.00;35.80
81210;DHT22;70685;52.496;13.420;2023-08-30T12:12:33;26.80;36.20
81210;DHT22;70685;52.496;13.420;2023-08-30T12:15:07;26.70;35.90
81210;DHT22;70685;52.496;13.420;2023-08-30T12:17:34;26.50;36.40
81210;DHT22;70685;52.496;13.420;2023-08-30T12:19:59;26.40;35.90
81210;DHT22;70685;52.496;13.420;2023-08-30T12:22:46;26.50;36.20
81210;DHT22;70685;52.496;13.420;2023-08-30T12:27:45;26.60;35.90
81210;DHT22;70685;52.496;13.420;2023-08-30T12:30:12;26.50;36.30
81210;DHT22;70685;52.496;13.420;2023-08-30T12:32:37;26.20;36.70
81210;DHT22;70685;52.496;13.420;2023-08-30T12:35:03;26.10;36.80
81210;DHT22;70685;52.496;13.420;2023-08-30T12:37:28;26.00;37.10
81210;DHT22;70685;52.496;13.420;2023-08-30T12:39:54;25.90;37.10
81210;DHT22;70685;52.496;13.420;2023-08-30T12:42:24;25.60;38.30
81210;DHT22;70685;52.496;13.420;2023-08-30T12:44:52;25.30;38.70
81210;DHT22;70685;52.496;13.420;2023-08-30T12:47:20;25.10;38.90
81210;DHT22;70685;52.496;13.420;2023-08-30T12:49:48;25.00;38.90
81210;DHT22;70685;52.496;13.420;2023-08-30T12:52:13;24.90;39.30
81210;DHT22;70685;52.496;13.420;2023-08-30T12:54:39;24.90;39.60
81210;DHT22;70685;52.496;13.420;2023-08-30T12:57:04;24.90;39.80
81210;DHT22;70685;52.496;13.420;2023-08-30T12:59:30;24.80;40.00
81210;DHT22;70685;52.496;13.420;2023-08-30T13:01:55;25.10;40.10
81210;DHT22;70685;52.496;13.420;2023-08-30T13:04:21;25.70;39.20
81210;DHT22;70685;52.496;13.420;2023-08-30T13:06:49;26.30;38.40
81210;DHT22;70685;52.496;13.420;2023-08-30T13:09:17;26.80;37.40
81210;DHT22;70685;52.496;13.420;2023-08-30T13:11:43;27.30;36.80
81210;DHT22;70685;52.496;13.420;2023-08-30T13:14:10;27.90;35.90
81210;DHT22;70685;52.496;13.420;2023-08-30T13:16:38;28.40;34.80
81210;DHT22;70685;52.496;13.420;2023-08-30T13:19:03;28.80;34.70
81210;DHT22;70685;52.496;13.420;2023-08-30T13:21:29;28.90;35.10
81210;DHT22;70685;52.496;13.420;2023-08-30T13:23:57;28.90;34.60
81210;DHT22;70685;52.496;13.420;2023-08-30T13:26:22;29.10;34.10
81210;DHT22;70685;52.496;13.420;2023-08-30T13:28:50;29.70;33.40
81210;DHT22;70685;52.496;13.420;2023-08-30T13:31:15;30.50;32.90
81210;DHT22;70685;52.496;13.420;2023-08-30T13:33:41;30.80;32.40
81210;DHT22;70685;52.496;13.420;2023-08-30T13:36:08;31.10;32.00
81210;DHT22;70685;52.496;13.420;2023-08-30T13:38:34;30.90;31.60
81210;DHT22;70685;52.496;13.420;2023-08-30T13:41:00;30.60;31.90
81210;DHT22;70685;52.496;13.420;2023-08-30T13:43:25;30.00;33.20
81210;DHT22;70685;52.496;13.420;2023-08-30T13:45:58;29.50;33.50
81210;DHT22;70685;52.496;13.420;2023-08-30T13:48:23;29.10;34.30
81210;DHT22;70685;52.496;13.420;2023-08-30T13:50:49;28.50;35.70
81210;DHT22;70685;52.496;13.420;2023-08-30T13:53:17;28.00;35.20
81210;DHT22;70685;52.496;13.420;2023-08-30T13:55:46;27.60;36.20
81210;DHT22;70685;52.496;13.420;2023-08-30T13:58:14;27.20;37.60
81210;DHT22;70685;52.496;13.420;2023-08-30T14:00:40;26.90;38.10
81210;DHT22;70685;52.496;13.420;2023-08-30T14:03:05;26.80;37.90
81210;DHT22;70685;52.496;13.420;2023-08-30T14:05:32;26.70;38.20
81210;DHT22;70685;52.496;13.420;2023-08-30T14:07:57;26.70;38.80
81210;DHT22;70685;52.496;13.420;2023-08-30T14:10:23;26.90;38.30
81210;DHT22;70685;52.496;13.420;2023-08-30T14:15:46;28.20;35.90
81210;DHT22;70685;52.496;13.420;2023-08-30T14:18:14;28.90;34.30
81210;DHT22;70685;52.496;13.420;2023-08-30T14:20:43;29.80;33.70
81210;DHT22;70685;52.496;13.420;2023-08-30T14:23:09;30.40;32.50
81210;DHT22;70685;52.496;13.420;2023-08-30T14:25:34;30.80;32.80
81210;DHT22;70685;52.496;13.420;2023-08-30T14:28:00;31.10;31.30
81210;DHT22;70685;52.496;13.420;2023-08-30T14:30:26;31.30;31.60
81210;DHT22;70685;52.496;13.420;2023-08-30T14:32:52;31.30;31.00
81210;DHT22;70685;52.496;13.420;2023-08-30T14:35:18;30.80;30.80
81210;DHT22;70685;52.496;13.420;2023-08-30T14:37:46;30.00;31.20
81210;DHT22;70685;52.496;13.420;2023-08-30T14:40:13;29.10;32.80
81210;DHT22;70685;52.496;13.420;2023-08-30T14:42:39;28.70;33.00
81210;DHT22;70685;52.496;13.420;2023-08-30T14:45:07;28.90;32.10
81210;DHT22;70685;52.496;13.420;2023-08-30T14:47:39;29.00;32.20
81210;DHT22;70685;52.496;13.420;2023-08-30T14:50:04;29.40;32.10
81210;DHT22;70685;52.496;13.420;2023-08-30T14:52:30;29.80;31.50
81210;DHT22;70685;52.496;13.420;2023-08-30T14:54:55;30.00;31.30
81210;DHT22;70685;52.496;13.420;2023-08-30T14:57:21;30.00;30.60
81210;DHT22;70685;52.496;13.420;2023-08-30T14:59:50;30.00;30.90
81210;DHT22;70685;52.496;13.420;2023-08-30T15:02:17;29.50;30.00
81210;DHT22;70685;52.496;13.420;2023-08-30T15:04:43;28.40;30.50
81210;DHT22;70685;52.496;13.420;2023-08-30T15:09:42;27.90;30.70
81210;DHT22;70685;52.496;13.420;2023-08-30T15:12:07;27.70;32.10
81210;DHT22;70685;52.496;13.420;2023-08-30T15:14:34;27.30;32.40
81210;DHT22;70685;52.496;13.420;2023-08-30T15:17:09;26.90;33.20
81210;DHT22;70685;52.496;13.420;2023-08-30T15:19:40;26.10;34.30
81210;DHT22;70685;52.496;13.420;2023-08-30T15:22:06;25.40;35.10
81210;DHT22;70685;52.496;13.420;2023-08-30T15:24:33;24.90;36.20
81210;DHT22;70685;52.496;13.420;2023-08-30T15:27:03;24.60;36.90
81210;DHT22;70685;52.496;13.420;2023-08-30T15:29:31;24.50;37.30
81210;DHT22;70685;52.496;13.420;2023-08-30T15:31:57;24.10;37.90
81210;DHT22;70685;52.496;13.420;2023-08-30T15:34:23;23.80;38.60
81210;DHT22;70685;52.496;13.420;2023-08-30T15:36:48;23.60;38.70
81210;DHT22;70685;52.496;13.420;2023-08-30T15:39:16;23.30;39.30
81210;DHT22;70685;52.496;13.420;2023-08-30T15:41:46;23.20;38.70
81210;DHT22;70685;52.496;13.420;2023-08-30T15:44:13;23.00;39.50
81210;DHT22;70685;52.496;13.420;2023-08-30T15:46:39;22.80;39.80
81210;DHT22;70685;52.496;13.420;2023-08-30T15:49:05;22.70;39.70
81210;DHT22;70685;52.496;13.420;2023-08-30T15:51:31;22.60;39.80
81210;DHT22;70685;52.496;13.420;2023-08-30T15:53:57;22.50;39.70
81210;DHT22;70685;52.496;13.420;2023-08-30T15:56:23;22.50;40.50
81210;DHT22;70685;52.496;13.420;2023-08-30T15:58:49;22.70;41.10
81210;DHT22;70685;52.496;13.420;2023-08-30T16:01:15;22.70;40.40
81210;DHT22;70685;52.496;13.420;2023-08-30T16:03:42;22.70;40.40
81210;DHT22;70685;52.496;13.420;2023-08-30T16:06:10;22.70;39.90
81210;DHT22;70685;52.496;13.420;2023-08-30T16:08:35;22.60;39.80